sensor_id;sensor_type;location;lat;lon;timestamp;temperature;humidity
24217;DHT22;12356;49.386;8.688;2023-06-26T00:00:19;24.90;1.00
24217;DHT22;12356;49.386;8.688;2023-06-26T00:02:50;24.90;1.00
24217;DHT22;12356;49.386;8.688;2023-06-26T00:05:21;24.80;1.00
24217;DHT22;12356;49.386;8.688;2023-06-26T00:07:52;24.70;1.00
24217;DHT22;12356;49.386;8.688;2023-06-26T00:10:22;24.70;1.00
24217;DHT22;12356;49.386;8.688;2023-06-26T00:12:54;24.60;1.00
24217;DHT22;12356;49.386;8.688;2023-06-26T00:15:24;24.50;1.30
24217;DHT22;12356;49.386;8.688;2023-06-26T00:17:55;24.50;1.30
24217;DHT22;12356;49.386;8.688;2023-06-26T00:20:25;24.40;1.80
24217;DHT22;12356;49.386;8.688;2023-06-26T00:22:56;24.30;2.40
24217;DHT22;12356;49.386;8.688;2023-06-26T00:25:30;24.20;2.90
24217;DHT22;12356;49.386;8.688;2023-06-26T00:28:00;24.10;3.50
24217;DHT22;12356;49.386;8.688;2023-06-26T00:30:31;24.00;3.20
24217;DHT22;12356;49.386;8.688;2023-06-26T00:33:02;23.90;4.10
24217;DHT22;12356;49.386;8.688;2023-06-26T00:35:32;23.90;3.60
24217;DHT22;12356;49.386;8.688;2023-06-26T00:38:03;23.80;4.60
24217;DHT22;12356;49.386;8.688;2023-06-26T00:40:33;23.70;4.50
24217;DHT22;12356;49.386;8.688;2023-06-26T00:43:04;23.60;4.30
24217;DHT22;12356;49.386;8.688;2023-06-26T00:45:34;23.60;4.10
24217;DHT22;12356;49.386;8.688;2023-06-26T00:48:05;23.50;4.90
24217;DHT22;12356;49.386;8.688;2023-06-26T00:50:36;23.50;5.30
24217;DHT22;12356;49.386;8.688;2023-06-26T00:53:09;23.50;6.10
24217;DHT22;12356;49.386;8.688;2023-06-26T00:55:39;23.40;6.10
24217;DHT22;12356;49.386;8.688;2023-06-26T00:58:10;23.30;6.30
24217;DHT22;12356;49.386;8.688;2023-06-26T01:00:41;23.30;6.40
24217;DHT22;12356;49.386;8.688;2023-06-26T01:03:13;23.20;7.00
24217;DHT22;12356;49.386;8.688;2023-06-26T01:05:44;23.20;7.50
24217;DHT22;12356;49.386;8.688;2023-06-26T01:08:16;23.10;7.70
24217;DHT22;12356;49.386;8.688;2023-06-26T01:10:48;23.00;7.60
24217;DHT22;12356;49.386;8.688;2023-06-26T01:13:19;23.00;7.90
24217;DHT22;12356;49.386;8.688;2023-06-26T01:15:50;22.90;8.10
24217;DHT22;12356;49.386;8.688;2023-06-26T01:18:21;22.90;8.50
24217;DHT22;12356;49.386;8.688;2023-06-26T01:20:53;22.80;8.60
24217;DHT22;12356;49.386;8.688;2023-06-26T01:23:35;22.80;8.10
24217;DHT22;12356;49.386;8.688;2023-06-26T01:26:22;22.80;8.40
24217;DHT22;12356;49.386;8.688;2023-06-26T01:28:53;22.80;8.90
24217;DHT22;12356;49.386;8.688;2023-06-26T01:31:27;22.70;9.40
24217;DHT22;12356;49.386;8.688;2023-06-26T01:33:59;22.70;9.80
24217;DHT22;12356;49.386;8.688;2023-06-26T01:36:31;22.60;10.00
24217;DHT22;12356;49.386;8.688;2023-06-26T01:39:01;22.60;10.00
24217;DHT22;12356;49.386;8.688;2023-06-26T01:41:32;22.50;10.30
24217;DHT22;12356;49.386;8.688;2023-06-26T01:47:07;22.50;10.90
24217;DHT22;12356;49.386;8.688;2023-06-26T01:49:52;22.40;11.20
24217;DHT22;12356;49.386;8.688;2023-06-26T01:55:40;22.30;12.30
24217;DHT22;12356;49.386;8.688;2023-06-26T01:58:13;22.20;12.30
24217;DHT22;12356;49.386;8.688;2023-06-26T02:00:45;22.20;11.90
24217;DHT22;12356;49.386;8.688;2023-06-26T02:03:15;22.10;12.40
24217;DHT22;12356;49.386;8.688;2023-06-26T02:05:46;22.10;12.20
24217;DHT22;12356;49.386;8.688;2023-06-26T02:08:17;22.10;12.50
24217;DHT22;12356;49.386;8.688;2023-06-26T02:10:47;22.10;12.00
24217;DHT22;12356;49.386;8.688;2023-06-26T02:13:18;22.00;12.20
24217;DHT22;12356;49.386;8.688;2023-06-26T02:15:48;22.00;12.60
24217;DHT22;12356;49.386;8.688;2023-06-26T02:18:19;22.00;12.50
24217;DHT22;12356;49.386;8.688;2023-06-26T02:20:51;22.00;12.40
24217;DHT22;12356;49.386;8.688;2023-06-26T02:23:22;22.00;12.10
24217;DHT22;12356;49.386;8.688;2023-06-26T02:25:52;22.00;12.30
24217;DHT22;12356;49.386;8.688;2023-06-26T02:28:23;22.00;12.80
24217;DHT22;12356;49.386;8.688;2023-06-26T02:30:53;21.90;12.90
24217;DHT22;12356;49.386;8.688;2023-06-26T02:33:24;21.90;13.80
24217;DHT22;12356;49.386;8.688;2023-06-26T02:35:54;21.90;13.30
24217;DHT22;12356;49.386;8.688;2023-06-26T02:38:25;21.80;13.40
24217;DHT22;12356;49.386;8.688;2023-06-26T02:40:55;21.80;13.60
24217;DHT22;12356;49.386;8.688;2023-06-26T02:43:26;21.90;13.90
24217;DHT22;12356;49.386;8.688;2023-06-26T02:45:56;21.90;13.60
24217;DHT22;12356;49.386;8.688;2023-06-26T02:48:27;21.80;13.50
24217;DHT22;12356;49.386;8.688;2023-06-26T02:50:58;21.70;14.40
24217;DHT22;12356;49.386;8.688;2023-06-26T02:53:29;21.70;14.50
24217;DHT22;12356;49.386;8.688;2023-06-26T02:56:01;21.70;14.40
24217;DHT22;12356;49.386;8.688;2023-06-26T02:58:32;21.70;14.00
24217;DHT22;12356;49.386;8.688;2023-06-26T03:01:03;21.60;15.10
24217;DHT22;12356;49.386;8.688;2023-06-26T03:03:33;21.50;15.00
24217;DHT22;12356;49.386;8.688;2023-06-26T03:06:10;21.50;16.00
24217;DHT22;12356;49.386;8.688;2023-06-26T03:08:41;21.40;16.50
24217;DHT22;12356;49.386;8.688;2023-06-26T03:11:12;21.50;16.20
24217;DHT22;12356;49.386;8.688;2023-06-26T03:13:42;21.40;16.90
24217;DHT22;12356;49.386;8.688;2023-06-26T03:16:13;21.40;17.00
24217;DHT22;12356;49.386;8.688;2023-06-26T03:18:43;21.30;16.70
24217;DHT22;12356;49.386;8.688;2023-06-26T03:21:14;21.30;17.00
24217;DHT22;12356;49.386;8.688;2023-06-26T03:23:44;21.30;16.90
24217;DHT22;12356;49.386;8.688;2023-06-26T03:26:15;21.30;16.90
24217;DHT22;12356;49.386;8.688;2023-06-26T03:28:46;21.30;17.50
24217;DHT22;12356;49.386;8.688;2023-06-26T03:31:16;21.20;16.90
24217;DHT22;12356;49.386;8.688;2023-06-26T03:33:47;21.30;16.90
24217;DHT22;12356;49.386;8.688;2023-06-26T03:36:17;21.30;16.80
24217;DHT22;12356;49.386;8.688;2023-06-26T03:38:48;21.30;17.00
24217;DHT22;12356;49.386;8.688;2023-06-26T03:41:18;21.20;17.50
24217;DHT22;12356;49.386;8.688;2023-06-26T03:43:49;21.10;18.00
24217;DHT22;12356;49.386;8.688;2023-06-26T03:46:19;21.10;18.00
24217;DHT22;12356;49.386;8.688;2023-06-26T03:48:50;21.10;18.40
24217;DHT22;12356;49.386;8.688;2023-06-26T03:51:20;21.00;19.10
24217;DHT22;12356;49.386;8.688;2023-06-26T03:53:51;21.00;18.90
24217;DHT22;12356;49.386;8.688;2023-06-26T03:56:22;21.10;18.70
24217;DHT22;12356;49.386;8.688;2023-06-26T03:58:52;21.10;18.70
24217;DHT22;12356;49.386;8.688;2023-06-26T04:01:23;21.10;18.50
24217;DHT22;12356;49.386;8.688;2023-06-26T04:03:54;21.10;18.30
24217;DHT22;12356;49.386;8.688;2023-06-26T04:06:24;21.10;18.90
24217;DHT22;12356;49.386;8.688;2023-06-26T04:08:55;21.00;19.60
24217;DHT22;12356;49.386;8.688;2023-06-26T04:11:26;21.00;19.50
24217;DHT22;12356;49.386;8.688;2023-06-26T04:13:57;20.90;19.80
24217;DHT22;12356;49.386;8.688;2023-06-26T04:16:27;20.90;20.20
24217;DHT22;12356;49.386;8.688;2023-06-26T04:18:58;20.90;20.50
24217;DHT22;12356;49.386;8.688;2023-06-26T04:21:28;20.90;20.80
24217;DHT22;12356;49.386;8.688;2023-06-26T04:23:59;20.90;20.80
24217;DHT22;12356;49.386;8.688;2023-06-26T04:26:29;20.90;20.70
24217;DHT22;12356;49.386;8.688;2023-06-26T04:29:00;20.90;21.10
24217;DHT22;12356;49.386;8.688;2023-06-26T04:31:30;20.90;20.80
24217;DHT22;12356;49.386;8.688;2023-06-26T04:34:01;21.00;20.90
24217;DHT22;12356;49.386;8.688;2023-06-26T04:36:32;20.90;21.50
24217;DHT22;12356;49.386;8.688;2023-06-26T04:39:03;21.00;20.90
24217;DHT22;12356;49.386;8.688;2023-06-26T04:41:35;21.00;20.90
24217;DHT22;12356;49.386;8.688;2023-06-26T04:44:05;21.00;21.40
24217;DHT22;12356;49.386;8.688;2023-06-26T04:46:37;20.90;22.10
24217;DHT22;12356;49.386;8.688;2023-06-26T04:49:10;20.90;22.40
24217;DHT22;12356;49.386;8.688;2023-06-26T04:51:41;20.90;22.80
24217;DHT22;12356;49.386;8.688;2023-06-26T04:54:11;20.90;23.10
24217;DHT22;12356;49.386;8.688;2023-06-26T04:56:42;20.90;22.30
24217;DHT22;12356;49.386;8.688;2023-06-26T04:59:14;20.90;22.10
24217;DHT22;12356;49.386;8.688;2023-06-26T05:01:45;20.90;21.50
24217;DHT22;12356;49.386;8.688;2023-06-26T05:04:18;21.00;21.50
24217;DHT22;12356;49.386;8.688;2023-06-26T05:06:49;21.00;20.90
24217;DHT22;12356;49.386;8.688;2023-06-26T05:09:19;21.00;20.90
24217;DHT22;12356;49.386;8.688;2023-06-26T05:11:50;21.00;20.90
24217;DHT22;12356;49.386;8.688;2023-06-26T05:14:20;21.10;21.00
24217;DHT22;12356;49.386;8.688;2023-06-26T05:16:51;21.10;21.60
24217;DHT22;12356;49.386;8.688;2023-06-26T05:19:21;21.10;21.40
24217;DHT22;12356;49.386;8.688;2023-06-26T05:21:52;21.20;21.30
24217;DHT22;12356;49.386;8.688;2023-06-26T05:24:24;21.20;22.00
24217;DHT22;12356;49.386;8.688;2023-06-26T05:26:55;21.20;21.50
24217;DHT22;12356;49.386;8.688;2023-06-26T05:29:26;21.20;21.10
24217;DHT22;12356;49.386;8.688;2023-06-26T05:31:58;21.30;21.30
24217;DHT22;12356;49.386;8.688;2023-06-26T05:34:29;21.30;21.00
24217;DHT22;12356;49.386;8.688;2023-06-26T05:36:59;21.40;19.60
24217;DHT22;12356;49.386;8.688;2023-06-26T05:39:30;21.50;18.80
24217;DHT22;12356;49.386;8.688;2023-06-26T05:42:01;21.50;16.90
24217;DHT22;12356;49.386;8.688;2023-06-26T05:44:33;21.60;15.30
24217;DHT22;12356;49.386;8.688;2023-06-26T05:47:04;21.70;15.20
24217;DHT22;12356;49.386;8.688;2023-06-26T05:49:35;21.80;15.00
24217;DHT22;12356;49.386;8.688;2023-06-26T05:52:06;21.90;15.70
24217;DHT22;12356;49.386;8.688;2023-06-26T05:54:37;22.00;15.40
24217;DHT22;12356;49.386;8.688;2023-06-26T05:57:08;22.00;14.80
24217;DHT22;12356;49.386;8.688;2023-06-26T05:59:40;22.10;13.70
24217;DHT22;12356;49.386;8.688;2023-06-26T06:02:12;22.20;14.30
24217;DHT22;12356;49.386;8.688;2023-06-26T06:04:42;22.20;13.20
24217;DHT22;12356;49.386;8.688;2023-06-26T06:07:13;22.30;13.10
24217;DHT22;12356;49.386;8.688;2023-06-26T06:09:43;22.30;13.60
24217;DHT22;12356;49.386;8.688;2023-06-26T06:12:14;22.40;12.20
24217;DHT22;12356;49.386;8.688;2023-06-26T06:14:45;22.40;12.90
24217;DHT22;12356;49.386;8.688;2023-06-26T06:17:15;22.50;12.40
24217;DHT22;12356;49.386;8.688;2023-06-26T06:19:46;22.50;12.10
24217;DHT22;12356;49.386;8.688;2023-06-26T06:22:16;22.60;12.50
24217;DHT22;12356;49.386;8.688;2023-06-26T06:24:49;22.60;13.70
24217;DHT22;12356;49.386;8.688;2023-06-26T06:27:20;22.70;13.70
24217;DHT22;12356;49.386;8.688;2023-06-26T06:29:51;22.70;12.60
24217;DHT22;12356;49.386;8.688;2023-06-26T06:32:21;22.70;12.40
24217;DHT22;12356;49.386;8.688;2023-06-26T06:34:52;22.70;12.30
24217;DHT22;12356;49.386;8.688;2023-06-26T06:37:22;22.80;12.40
24217;DHT22;12356;49.386;8.688;2023-06-26T06:39:53;22.80;12.70
24217;DHT22;12356;49.386;8.688;2023-06-26T06:42:24;22.90;12.70
24217;DHT22;12356;49.386;8.688;2023-06-26T06:44:54;22.90;13.00
24217;DHT22;12356;49.386;8.688;2023-06-26T06:47:25;22.90;12.50
24217;DHT22;12356;49.386;8.688;2023-06-26T06:49:56;22.90;12.70
24217;DHT22;12356;49.386;8.688;2023-06-26T06:52:27;23.00;12.80
24217;DHT22;12356;49.386;8.688;2023-06-26T06:54:57;23.00;12.60
24217;DHT22;12356;49.386;8.688;2023-06-26T06:57:29;23.10;12.10
24217;DHT22;12356;49.386;8.688;2023-06-26T06:59:59;23.10;11.80
24217;DHT22;12356;49.386;8.688;2023-06-26T07:02:30;23.10;12.30
24217;DHT22;12356;49.386;8.688;2023-06-26T07:05:01;23.20;12.40
24217;DHT22;12356;49.386;8.688;2023-06-26T07:07:33;23.20;11.80
24217;DHT22;12356;49.386;8.688;2023-06-26T07:10:09;23.20;11.90
24217;DHT22;12356;49.386;8.688;2023-06-26T07:12:40;23.30;12.60
24217;DHT22;12356;49.386;8.688;2023-06-26T07:15:10;23.30;13.20
24217;DHT22;12356;49.386;8.688;2023-06-26T07:17:41;23.40;13.40
24217;DHT22;12356;49.386;8.688;2023-06-26T07:20:11;23.40;12.60
24217;DHT22;12356;49.386;8.688;2023-06-26T07:22:45;23.50;12.60
24217;DHT22;12356;49.386;8.688;2023-06-26T07:25:17;23.50;11.80
24217;DHT22;12356;49.386;8.688;2023-06-26T07:27:48;23.70;12.30
24217;DHT22;12356;49.386;8.688;2023-06-26T07:30:18;23.70;12.00
24217;DHT22;12356;49.386;8.688;2023-06-26T07:32:49;23.80;12.20
24217;DHT22;12356;49.386;8.688;2023-06-26T07:35:20;23.80;11.30
24217;DHT22;12356;49.386;8.688;2023-06-26T07:37:51;23.90;11.50
24217;DHT22;12356;49.386;8.688;2023-06-26T07:40:21;24.00;11.70
24217;DHT22;12356;49.386;8.688;2023-06-26T07:42:52;24.10;12.50
24217;DHT22;12356;49.386;8.688;2023-06-26T07:45:24;24.20;12.10
24217;DHT22;12356;49.386;8.688;2023-06-26T07:47:54;24.30;11.40
24217;DHT22;12356;49.386;8.688;2023-06-26T07:50:25;24.40;10.80
24217;DHT22;12356;49.386;8.688;2023-06-26T07:52:56;24.50;11.80
24217;DHT22;12356;49.386;8.688;2023-06-26T07:55:27;24.50;10.80
24217;DHT22;12356;49.386;8.688;2023-06-26T07:57:57;24.60;11.30
24217;DHT22;12356;49.386;8.688;2023-06-26T08:00:28;24.60;11.20
24217;DHT22;12356;49.386;8.688;2023-06-26T08:02:58;24.80;10.20
24217;DHT22;12356;49.386;8.688;2023-06-26T08:05:29;24.80;10.20
24217;DHT22;12356;49.386;8.688;2023-06-26T08:08:00;24.80;9.30
24217;DHT22;12356;49.386;8.688;2023-06-26T08:10:32;24.90;9.90
24217;DHT22;12356;49.386;8.688;2023-06-26T08:13:02;24.90;9.60
24217;DHT22;12356;49.386;8.688;2023-06-26T08:15:33;25.00;10.40
24217;DHT22;12356;49.386;8.688;2023-06-26T08:18:04;25.00;10.50
24217;DHT22;12356;49.386;8.688;2023-06-26T08:20:34;25.00;9.80
24217;DHT22;12356;49.386;8.688;2023-06-26T08:23:07;25.10;9.20
24217;DHT22;12356;49.386;8.688;2023-06-26T08:25:37;25.20;7.80
24217;DHT22;12356;49.386;8.688;2023-06-26T08:28:08;25.20;8.10
24217;DHT22;12356;49.386;8.688;2023-06-26T08:30:38;25.30;6.10
24217;DHT22;12356;49.386;8.688;2023-06-26T08:33:09;25.30;7.70
24217;DHT22;12356;49.386;8.688;2023-06-26T08:35:42;25.40;7.60
24217;DHT22;12356;49.386;8.688;2023-06-26T08:38:13;25.40;7.20
24217;DHT22;12356;49.386;8.688;2023-06-26T08:40:43;25.40;7.50
24217;DHT22;12356;49.386;8.688;2023-06-26T08:43:14;25.50;8.60
24217;DHT22;12356;49.386;8.688;2023-06-26T08:45:45;25.60;5.80
24217;DHT22;12356;49.386;8.688;2023-06-26T08:48:17;25.60;6.50
24217;DHT22;12356;49.386;8.688;2023-06-26T08:50:49;25.70;7.60
24217;DHT22;12356;49.386;8.688;2023-06-26T08:53:27;25.70;8.30
24217;DHT22;12356;49.386;8.688;2023-06-26T08:55:59;25.80;8.20
24217;DHT22;12356;49.386;8.688;2023-06-26T08:58:31;25.90;7.80
24217;DHT22;12356;49.386;8.688;2023-06-26T09:01:04;26.00;6.20
24217;DHT22;12356;49.386;8.688;2023-06-26T09:03:35;26.10;8.70
24217;DHT22;12356;49.386;8.688;2023-06-26T09:06:05;26.10;7.10
24217;DHT22;12356;49.386;8.688;2023-06-26T09:08:36;26.10;5.40
24217;DHT22;12356;49.386;8.688;2023-06-26T09:11:07;26.20;3.10
24217;DHT22;12356;49.386;8.688;2023-06-26T09:13:38;26.20;3.00
24217;DHT22;12356;49.386;8.688;2023-06-26T09:16:09;26.10;4.10
24217;DHT22;12356;49.386;8.688;2023-06-26T09:18:41;26.10;4.10
24217;DHT22;12356;49.386;8.688;2023-06-26T09:21:12;26.00;3.60
24217;DHT22;12356;49.386;8.688;2023-06-26T09:23:44;26.00;4.00
24217;DHT22;12356;49.386;8.688;2023-06-26T09:26:14;26.00;4.40
24217;DHT22;12356;49.386;8.688;2023-06-26T09:28:45;26.00;4.30
24217;DHT22;12356;49.386;8.688;2023-06-26T09:31:17;26.00;4.40
24217;DHT22;12356;49.386;8.688;2023-06-26T09:33:47;26.00;3.10
24217;DHT22;12356;49.386;8.688;2023-06-26T09:36:20;26.10;4.00
24217;DHT22;12356;49.386;8.688;2023-06-26T09:38:55;26.10;4.10
24217;DHT22;12356;49.386;8.688;2023-06-26T09:41:26;26.10;6.40
24217;DHT22;12356;49.386;8.688;2023-06-26T09:44:01;26.10;5.20
24217;DHT22;12356;49.386;8.688;2023-06-26T09:46:32;26.10;5.90
24217;DHT22;12356;49.386;8.688;2023-06-26T09:49:05;26.20;6.90
24217;DHT22;12356;49.386;8.688;2023-06-26T09:51:38;26.20;4.30
24217;DHT22;12356;49.386;8.688;2023-06-26T09:54:09;26.30;4.60
24217;DHT22;12356;49.386;8.688;2023-06-26T09:56:40;26.40;5.10
24217;DHT22;12356;49.386;8.688;2023-06-26T09:59:10;26.40;4.80
24217;DHT22;12356;49.386;8.688;2023-06-26T10:01:43;26.40;6.60
24217;DHT22;12356;49.386;8.688;2023-06-26T10:04:15;26.50;6.10
24217;DHT22;12356;49.386;8.688;2023-06-26T10:06:46;26.50;7.10
24217;DHT22;12356;49.386;8.688;2023-06-26T10:09:19;26.60;6.60
24217;DHT22;12356;49.386;8.688;2023-06-26T10:11:56;26.60;6.00
24217;DHT22;12356;49.386;8.688;2023-06-26T10:14:39;26.70;6.70
24217;DHT22;12356;49.386;8.688;2023-06-26T10:17:12;26.80;6.70
24217;DHT22;12356;49.386;8.688;2023-06-26T10:19:45;26.80;5.70
24217;DHT22;12356;49.386;8.688;2023-06-26T10:22:17;26.80;4.10
24217;DHT22;12356;49.386;8.688;2023-06-26T10:24:49;26.80;3.60
24217;DHT22;12356;49.386;8.688;2023-06-26T10:27:23;26.90;3.50
24217;DHT22;12356;49.386;8.688;2023-06-26T10:30:00;26.90;2.70
24217;DHT22;12356;49.386;8.688;2023-06-26T10:32:33;27.00;2.20
24217;DHT22;12356;49.386;8.688;2023-06-26T10:35:05;27.00;3.40
24217;DHT22;12356;49.386;8.688;2023-06-26T10:37:48;27.10;1.70
24217;DHT22;12356;49.386;8.688;2023-06-26T10:40:25;27.20;1.20
24217;DHT22;12356;49.386;8.688;2023-06-26T10:43:09;27.30;1.40
24217;DHT22;12356;49.386;8.688;2023-06-26T10:45:47;27.40;1.10
24217;DHT22;12356;49.386;8.688;2023-06-26T10:48:22;27.50;1.00
24217;DHT22;12356;49.386;8.688;2023-06-26T10:51:13;27.50;2.70
24217;DHT22;12356;49.386;8.688;2023-06-26T10:53:44;27.50;1.00
24217;DHT22;12356;49.386;8.688;2023-06-26T10:56:20;27.60;1.00
24217;DHT22;12356;49.386;8.688;2023-06-26T10:58:51;27.50;1.00
24217;DHT22;12356;49.386;8.688;2023-06-26T11:01:25;27.50;1.00
24217;DHT22;12356;49.386;8.688;2023-06-26T11:04:06;27.50;1.00
24217;DHT22;12356;49.386;8.688;2023-06-26T11:06:38;27.40;1.00
24217;DHT22;12356;49.386;8.688;2023-06-26T11:09:11;27.40;1.00
24217;DHT22;12356;49.386;8.688;2023-06-26T11:14:26;27.30;2.00
24217;DHT22;12356;49.386;8.688;2023-06-26T11:16:58;27.30;1.50
24217;DHT22;12356;49.386;8.688;2023-06-26T11:19:29;27.30;1.00
24217;DHT22;12356;49.386;8.688;2023-06-26T11:22:03;27.30;1.20
24217;DHT22;12356;49.386;8.688;2023-06-26T11:24:34;27.30;2.20
24217;DHT22;12356;49.386;8.688;2023-06-26T11:27:06;27.40;1.70
24217;DHT22;12356;49.386;8.688;2023-06-26T11:29:36;27.50;1.60
24217;DHT22;12356;49.386;8.688;2023-06-26T11:32:07;27.50;1.30
24217;DHT22;12356;49.386;8.688;2023-06-26T11:34:38;27.60;3.80
24217;DHT22;12356;49.386;8.688;2023-06-26T11:37:09;27.50;2.70
24217;DHT22;12356;49.386;8.688;2023-06-26T11:39:39;27.60;2.60
24217;DHT22;12356;49.386;8.688;2023-06-26T11:42:11;27.60;4.00
24217;DHT22;12356;49.386;8.688;2023-06-26T11:44:42;27.60;3.00
24217;DHT22;12356;49.386;8.688;2023-06-26T11:47:17;27.60;1.20
24217;DHT22;12356;49.386;8.688;2023-06-26T11:49:49;27.60;1.00
24217;DHT22;12356;49.386;8.688;2023-06-26T11:52:19;27.60;1.00
24217;DHT22;12356;49.386;8.688;2023-06-26T11:54:50;27.60;2.50
24217;DHT22;12356;49.386;8.688;2023-06-26T11:57:21;27.70;1.20
24217;DHT22;12356;49.386;8.688;2023-06-26T11:59:51;27.70;1.00
24217;DHT22;12356;49.386;8.688;2023-06-26T12:02:22;27.70;1.00
24217;DHT22;12356;49.386;8.688;2023-06-26T12:04:53;27.60;1.00
24217;DHT22;12356;49.386;8.688;2023-06-26T12:07:24;27.60;1.00
24217;DHT22;12356;49.386;8.688;2023-06-26T12:09:54;27.50;1.00
24217;DHT22;12356;49.386;8.688;2023-06-26T12:12:25;27.60;1.00
24217;DHT22;12356;49.386;8.688;2023-06-26T12:14:56;27.60;1.00
24217;DHT22;12356;49.386;8.688;2023-06-26T12:17:27;27.60;1.00
24217;DHT22;12356;49.386;8.688;2023-06-26T12:19:57;27.60;2.20
24217;DHT22;12356;49.386;8.688;2023-06-26T12:22:34;27.60;1.00
24217;DHT22;12356;49.386;8.688;2023-06-26T12:25:07;27.70;1.00
24217;DHT22;12356;49.386;8.688;2023-06-26T12:27:37;27.70;1.00
24217;DHT22;12356;49.386;8.688;2023-06-26T12:30:08;27.60;1.50
24217;DHT22;12356;49.386;8.688;2023-06-26T12:32:39;27.60;1.00
24217;DHT22;12356;49.386;8.688;2023-06-26T12:35:10;27.60;1.00
24217;DHT22;12356;49.386;8.688;2023-06-26T12:37:42;27.60;1.00
24217;DHT22;12356;49.386;8.688;2023-06-26T12:40:18;27.70;1.00
24217;DHT22;12356;49.386;8.688;2023-06-26T12:42:49;27.70;1.00
24217;DHT22;12356;49.386;8.688;2023-06-26T12:45:19;27.70;1.00
24217;DHT22;12356;49.386;8.688;2023-06-26T12:47:50;27.70;1.00
24217;DHT22;12356;49.386;8.688;2023-06-26T12:50:21;27.70;1.00
24217;DHT22;12356;49.386;8.688;2023-06-26T12:52:51;27.70;1.00
24217;DHT22;12356;49.386;8.688;2023-06-26T12:55:22;27.60;1.00
24217;DHT22;12356;49.386;8.688;2023-06-26T12:57:52;27.50;1.00
24217;DHT22;12356;49.386;8.688;2023-06-26T13:00:23;27.50;1.00
24217;DHT22;12356;49.386;8.688;2023-06-26T13:02:54;27.50;1.00
24217;DHT22;12356;49.386;8.688;2023-06-26T13:05:24;27.50;1.00
24217;DHT22;12356;49.386;8.688;2023-06-26T13:07:55;27.60;1.00
24217;DHT22;12356;49.386;8.688;2023-06-26T13:10:25;27.60;1.00
24217;DHT22;12356;49.386;8.688;2023-06-26T13:12:59;27.60;1.00
24217;DHT22;12356;49.386;8.688;2023-06-26T13:15:29;27.70;1.00
24217;DHT22;12356;49.386;8.688;2023-06-26T13:18:00;27.80;1.00
24217;DHT22;12356;49.386;8.688;2023-06-26T13:20:30;27.80;1.00
24217;DHT22;12356;49.386;8.688;2023-06-26T13:23:01;27.90;1.00
24217;DHT22;12356;49.386;8.688;2023-06-26T13:25:31;27.90;1.00
24217;DHT22;12356;49.386;8.688;2023-06-26T13:28:02;28.00;1.00
24217;DHT22;12356;49.386;8.688;2023-06-26T13:30:33;28.00;1.00
24217;DHT22;12356;49.386;8.688;2023-06-26T13:33:03;27.90;1.00
24217;DHT22;12356;49.386;8.688;2023-06-26T13:35:34;28.00;1.00
24217;DHT22;12356;49.386;8.688;2023-06-26T13:38:04;28.00;1.00
24217;DHT22;12356;49.386;8.688;2023-06-26T13:40:35;28.00;1.00
24217;DHT22;12356;49.386;8.688;2023-06-26T13:43:06;28.10;1.00
24217;DHT22;12356;49.386;8.688;2023-06-26T13:45:36;28.10;1.00
24217;DHT22;12356;49.386;8.688;2023-06-26T13:48:07;28.10;1.00
24217;DHT22;12356;49.386;8.688;2023-06-26T13:50:38;28.20;1.00
24217;DHT22;12356;49.386;8.688;2023-06-26T13:53:09;28.20;1.00
24217;DHT22;12356;49.386;8.688;2023-06-26T13:55:40;28.20;1.00
24217;DHT22;12356;49.386;8.688;2023-06-26T13:58:11;28.20;1.00
24217;DHT22;12356;49.386;8.688;2023-06-26T14:00:43;28.10;1.00
24217;DHT22;12356;49.386;8.688;2023-06-26T14:03:14;28.20;1.00
24217;DHT22;12356;49.386;8.688;2023-06-26T14:05:45;28.10;1.00
24217;DHT22;12356;49.386;8.688;2023-06-26T14:08:16;28.00;1.00
24217;DHT22;12356;49.386;8.688;2023-06-26T14:10:47;28.00;1.00
24217;DHT22;12356;49.386;8.688;2023-06-26T14:13:17;27.90;1.00
24217;DHT22;12356;49.386;8.688;2023-06-26T14:15:48;27.90;1.00
24217;DHT22;12356;49.386;8.688;2023-06-26T14:18:18;28.00;1.00
24217;DHT22;12356;49.386;8.688;2023-06-26T14:20:49;28.10;1.00
24217;DHT22;12356;49.386;8.688;2023-06-26T14:23:20;28.20;1.00
24217;DHT22;12356;49.386;8.688;2023-06-26T14:25:50;28.20;1.00
24217;DHT22;12356;49.386;8.688;2023-06-26T14:28:21;28.10;1.00
24217;DHT22;12356;49.386;8.688;2023-06-26T14:30:52;28.10;1.00
24217;DHT22;12356;49.386;8.688;2023-06-26T14:33:22;28.10;1.00
24217;DHT22;12356;49.386;8.688;2023-06-26T14:35:53;28.10;1.00
24217;DHT22;12356;49.386;8.688;2023-06-26T14:38:23;28.10;1.00
24217;DHT22;12356;49.386;8.688;2023-06-26T14:40:54;28.00;1.00
24217;DHT22;12356;49.386;8.688;2023-06-26T14:43:24;28.00;1.00
24217;DHT22;12356;49.386;8.688;2023-06-26T14:45:55;28.10;1.00
24217;DHT22;12356;49.386;8.688;2023-06-26T14:48:26;28.20;1.00
24217;DHT22;12356;49.386;8.688;2023-06-26T14:50:56;28.10;1.00
24217;DHT22;12356;49.386;8.688;2023-06-26T14:53:27;28.10;1.00
24217;DHT22;12356;49.386;8.688;2023-06-26T14:55:57;28.10;1.00
24217;DHT22;12356;49.386;8.688;2023-06-26T14:58:28;28.00;1.00
24217;DHT22;12356;49.386;8.688;2023-06-26T15:00:58;27.90;1.00
24217;DHT22;12356;49.386;8.688;2023-06-26T15:03:29;27.90;1.00
24217;DHT22;12356;49.386;8.688;2023-06-26T15:06:00;27.90;1.00
24217;DHT22;12356;49.386;8.688;2023-06-26T15:08:30;27.80;1.00
24217;DHT22;12356;49.386;8.688;2023-06-26T15:11:02;27.70;1.00
24217;DHT22;12356;49.386;8.688;2023-06-26T15:13:33;27.70;1.00
24217;DHT22;12356;49.386;8.688;2023-06-26T15:16:03;27.80;1.00
24217;DHT22;12356;49.386;8.688;2023-06-26T15:18:34;27.80;1.00
24217;DHT22;12356;49.386;8.688;2023-06-26T15:21:04;27.80;1.00
24217;DHT22;12356;49.386;8.688;2023-06-26T15:23:35;27.80;1.00
24217;DHT22;12356;49.386;8.688;2023-06-26T15:26:05;27.80;1.00
24217;DHT22;12356;49.386;8.688;2023-06-26T15:28:36;27.80;1.00
24217;DHT22;12356;49.386;8.688;2023-06-26T15:31:07;27.70;1.00
24217;DHT22;12356;49.386;8.688;2023-06-26T15:33:37;27.70;1.00
24217;DHT22;12356;49.386;8.688;2023-06-26T15:36:08;27.60;1.00
24217;DHT22;12356;49.386;8.688;2023-06-26T15:38:38;27.50;1.00
24217;DHT22;12356;49.386;8.688;2023-06-26T15:41:09;27.40;1.00
24217;DHT22;12356;49.386;8.688;2023-06-26T15:43:40;27.40;1.00
24217;DHT22;12356;49.386;8.688;2023-06-26T15:46:13;27.30;1.00
24217;DHT22;12356;49.386;8.688;2023-06-26T15:48:44;27.30;1.00
24217;DHT22;12356;49.386;8.688;2023-06-26T15:51:14;27.30;1.00
24217;DHT22;12356;49.386;8.688;2023-06-26T15:53:45;27.30;1.00
24217;DHT22;12356;49.386;8.688;2023-06-26T15:56:16;27.30;1.00
24217;DHT22;12356;49.386;8.688;2023-06-26T15:58:47;27.30;1.00
24217;DHT22;12356;49.386;8.688;2023-06-26T16:01:19;27.30;1.00
24217;DHT22;12356;49.386;8.688;2023-06-26T16:03:51;27.30;1.00
24217;DHT22;12356;49.386;8.688;2023-06-26T16:06:21;27.40;1.00
24217;DHT22;12356;49.386;8.688;2023-06-26T16:08:52;27.30;1.00
24217;DHT22;12356;49.386;8.688;2023-06-26T16:11:23;27.30;1.00
24217;DHT22;12356;49.386;8.688;2023-06-26T16:13:53;27.30;1.00